sensor_id;sensor_type;location;lat;lon;timestamp;temperature;humidity
16154;DHT22;8182;55.648;13.208;2024-03-02T00:00:44;6.20;1.00
16154;DHT22;8182;55.648;13.208;2024-03-02T00:03:15;6.10;1.00
16154;DHT22;8182;55.648;13.208;2024-03-02T00:05:42;6.10;1.00
16154;DHT22;8182;55.648;13.208;2024-03-02T00:08:09;6.20;1.00
16154;DHT22;8182;55.648;13.208;2024-03-02T00:10:37;6.30;1.00
16154;DHT22;8182;55.648;13.208;2024-03-02T00:13:06;6.30;1.00
16154;DHT22;8182;55.648;13.208;2024-03-02T00:15:40;6.30;1.00
16154;DHT22;8182;55.648;13.208;2024-03-02T00:18:09;6.30;1.00
16154;DHT22;8182;55.648;13.208;2024-03-02T00:20:37;6.30;1.00
16154;DHT22;8182;55.648;13.208;2024-03-02T00:23:05;6.30;1.00
16154;DHT22;8182;55.648;13.208;2024-03-02T00:25:39;6.30;1.00
16154;DHT22;8182;55.648;13.208;2024-03-02T00:28:14;6.30;1.00
16154;DHT22;8182;55.648;13.208;2024-03-02T00:30:54;6.30;1.00
16154;DHT22;8182;55.648;13.208;2024-03-02T00:33:22;6.20;1.00
16154;DHT22;8182;55.648;13.208;2024-03-02T00:35:53;6.10;1.00
16154;DHT22;8182;55.648;13.208;2024-03-02T00:38:20;6.00;1.00
16154;DHT22;8182;55.648;13.208;2024-03-02T00:40:47;6.10;1.00
16154;DHT22;8182;55.648;13.208;2024-03-02T00:43:42;6.20;1.00
16154;DHT22;8182;55.648;13.208;2024-03-02T00:46:11;6.20;1.00
16154;DHT22;8182;55.648;13.208;2024-03-02T00:48:39;6.30;1.00
16154;DHT22;8182;55.648;13.208;2024-03-02T00:51:06;6.30;1.00
16154;DHT22;8182;55.648;13.208;2024-03-02T00:53:35;6.40;1.00
16154;DHT22;8182;55.648;13.208;2024-03-02T00:56:02;6.40;1.00
16154;DHT22;8182;55.648;13.208;2024-03-02T00:58:30;6.50;1.00
16154;DHT22;8182;55.648;13.208;2024-03-02T01:00:58;6.50;1.00
16154;DHT22;8182;55.648;13.208;2024-03-02T01:03:24;6.50;1.00
16154;DHT22;8182;55.648;13.208;2024-03-02T01:05:51;6.50;1.00
16154;DHT22;8182;55.648;13.208;2024-03-02T01:08:18;6.50;1.00
16154;DHT22;8182;55.648;13.208;2024-03-02T01:10:45;6.50;1.00
16154;DHT22;8182;55.648;13.208;2024-03-02T01:13:12;6.50;1.00
16154;DHT22;8182;55.648;13.208;2024-03-02T01:15:41;6.60;1.00
16154;DHT22;8182;55.648;13.208;2024-03-02T01:18:09;6.50;1.00
16154;DHT22;8182;55.648;13.208;2024-03-02T01:20:36;6.60;1.00
16154;DHT22;8182;55.648;13.208;2024-03-02T01:23:03;6.50;1.00
16154;DHT22;8182;55.648;13.208;2024-03-02T01:25:30;6.60;1.00
16154;DHT22;8182;55.648;13.208;2024-03-02T01:27:57;6.60;1.00
16154;DHT22;8182;55.648;13.208;2024-03-02T01:30:24;6.60;1.00
16154;DHT22;8182;55.648;13.208;2024-03-02T01:32:52;6.60;1.00
16154;DHT22;8182;55.648;13.208;2024-03-02T01:35:19;6.60;1.00
16154;DHT22;8182;55.648;13.208;2024-03-02T01:37:46;6.60;1.00
16154;DHT22;8182;55.648;13.208;2024-03-02T01:40:13;6.50;1.00
16154;DHT22;8182;55.648;13.208;2024-03-02T01:42:40;6.40;1.00
16154;DHT22;8182;55.648;13.208;2024-03-02T01:45:08;6.40;1.00
16154;DHT22;8182;55.648;13.208;2024-03-02T01:47:35;6.20;1.00
16154;DHT22;8182;55.648;13.208;2024-03-02T01:50:04;6.10;1.00
16154;DHT22;8182;55.648;13.208;2024-03-02T01:52:31;6.20;1.00
16154;DHT22;8182;55.648;13.208;2024-03-02T01:54:58;6.20;1.00
16154;DHT22;8182;55.648;13.208;2024-03-02T01:57:25;6.20;1.00
16154;DHT22;8182;55.648;13.208;2024-03-02T01:59:52;6.20;1.00
16154;DHT22;8182;55.648;13.208;2024-03-02T02:02:18;6.20;1.00
16154;DHT22;8182;55.648;13.208;2024-03-02T02:04:46;6.20;1.00
16154;DHT22;8182;55.648;13.208;2024-03-02T02:07:14;6.20;1.00
16154;DHT22;8182;55.648;13.208;2024-03-02T02:09:41;6.20;1.00
16154;DHT22;8182;55.648;13.208;2024-03-02T02:12:09;6.20;1.00
16154;DHT22;8182;55.648;13.208;2024-03-02T02:14:36;6.20;1.00
16154;DHT22;8182;55.648;13.208;2024-03-02T02:17:03;6.10;1.00
16154;DHT22;8182;55.648;13.208;2024-03-02T02:19:30;6.00;1.00
16154;DHT22;8182;55.648;13.208;2024-03-02T02:21:59;5.90;1.00
16154;DHT22;8182;55.648;13.208;2024-03-02T02:24:25;5.90;1.00
16154;DHT22;8182;55.648;13.208;2024-03-02T02:26:52;6.10;1.00
16154;DHT22;8182;55.648;13.208;2024-03-02T02:29:19;6.10;1.00
16154;DHT22;8182;55.648;13.208;2024-03-02T02:31:47;6.20;1.00
16154;DHT22;8182;55.648;13.208;2024-03-02T02:34:14;6.20;1.00
16154;DHT22;8182;55.648;13.208;2024-03-02T02:36:41;6.30;1.00
16154;DHT22;8182;55.648;13.208;2024-03-02T02:39:13;6.30;1.00
16154;DHT22;8182;55.648;13.208;2024-03-02T02:41:40;6.30;1.00
16154;DHT22;8182;55.648;13.208;2024-03-02T02:44:07;6.40;1.00
16154;DHT22;8182;55.648;13.208;2024-03-02T02:46:34;6.40;1.00
16154;DHT22;8182;55.648;13.208;2024-03-02T02:49:01;6.40;1.00
16154;DHT22;8182;55.648;13.208;2024-03-02T02:51:28;6.40;1.00
16154;DHT22;8182;55.648;13.208;2024-03-02T02:53:54;6.40;1.00
16154;DHT22;8182;55.648;13.208;2024-03-02T02:56:23;6.50;1.00
16154;DHT22;8182;55.648;13.208;2024-03-02T02:58:50;6.50;1.00
16154;DHT22;8182;55.648;13.208;2024-03-02T03:01:17;6.50;1.00
16154;DHT22;8182;55.648;13.208;2024-03-02T03:03:44;6.50;1.00
16154;DHT22;8182;55.648;13.208;2024-03-02T03:06:12;6.50;1.00
16154;DHT22;8182;55.648;13.208;2024-03-02T03:08:39;6.60;1.00
16154;DHT22;8182;55.648;13.208;2024-03-02T03:11:06;6.70;1.00
16154;DHT22;8182;55.648;13.208;2024-03-02T03:13:34;6.70;1.00
16154;DHT22;8182;55.648;13.208;2024-03-02T03:16:01;6.70;1.00
16154;DHT22;8182;55.648;13.208;2024-03-02T03:18:28;6.70;1.00
16154;DHT22;8182;55.648;13.208;2024-03-02T03:20:55;6.70;1.00
16154;DHT22;8182;55.648;13.208;2024-03-02T03:23:22;6.70;1.00
16154;DHT22;8182;55.648;13.208;2024-03-02T03:25:49;6.70;1.00
16154;DHT22;8182;55.648;13.208;2024-03-02T03:28:16;6.80;1.00
16154;DHT22;8182;55.648;13.208;2024-03-02T03:30:44;6.80;1.00
16154;DHT22;8182;55.648;13.208;2024-03-02T03:33:11;6.70;1.00
16154;DHT22;8182;55.648;13.208;2024-03-02T03:35:39;6.70;1.00
16154;DHT22;8182;55.648;13.208;2024-03-02T03:38:05;6.70;1.00
16154;DHT22;8182;55.648;13.208;2024-03-02T03:40:32;6.70;1.00
16154;DHT22;8182;55.648;13.208;2024-03-02T03:43:01;6.70;1.00
16154;DHT22;8182;55.648;13.208;2024-03-02T03:45:28;6.70;1.00
16154;DHT22;8182;55.648;13.208;2024-03-02T03:47:57;6.80;1.00
16154;DHT22;8182;55.648;13.208;2024-03-02T03:50:24;6.70;1.00
16154;DHT22;8182;55.648;13.208;2024-03-02T03:52:51;6.80;1.00
16154;DHT22;8182;55.648;13.208;2024-03-02T03:55:18;6.80;1.00
16154;DHT22;8182;55.648;13.208;2024-03-02T03:57:45;6.80;1.00
16154;DHT22;8182;55.648;13.208;2024-03-02T04:00:13;6.80;1.00
16154;DHT22;8182;55.648;13.208;2024-03-02T04:02:40;6.80;1.00
16154;DHT22;8182;55.648;13.208;2024-03-02T04:05:08;6.80;1.00
16154;DHT22;8182;55.648;13.208;2024-03-02T04:07:36;6.90;1.00
16154;DHT22;8182;55.648;13.208;2024-03-02T04:10:09;6.90;1.00
16154;DHT22;8182;55.648;13.208;2024-03-02T04:12:36;6.90;1.00
16154;DHT22;8182;55.648;13.208;2024-03-02T04:15:04;6.90;1.00
16154;DHT22;8182;55.648;13.208;2024-03-02T04:17:32;6.90;1.00
16154;DHT22;8182;55.648;13.208;2024-03-02T04:20:01;6.90;1.00
16154;DHT22;8182;55.648;13.208;2024-03-02T04:22:33;7.00;1.00
16154;DHT22;8182;55.648;13.208;2024-03-02T04:25:01;7.00;1.00
16154;DHT22;8182;55.648;13.208;2024-03-02T04:27:30;7.00;1.00
16154;DHT22;8182;55.648;13.208;2024-03-02T04:29:57;7.10;1.00
16154;DHT22;8182;55.648;13.208;2024-03-02T04:32:25;7.10;1.00
16154;DHT22;8182;55.648;13.208;2024-03-02T04:34:52;7.10;1.00
16154;DHT22;8182;55.648;13.208;2024-03-02T04:37:19;7.10;1.00
16154;DHT22;8182;55.648;13.208;2024-03-02T04:39:47;7.10;1.00
16154;DHT22;8182;55.648;13.208;2024-03-02T04:42:14;7.10;1.00
16154;DHT22;8182;55.648;13.208;2024-03-02T04:44:41;7.10;1.00
16154;DHT22;8182;55.648;13.208;2024-03-02T04:47:08;7.10;1.00
16154;DHT22;8182;55.648;13.208;2024-03-02T04:49:35;7.10;1.00
16154;DHT22;8182;55.648;13.208;2024-03-02T04:52:02;7.10;1.00
16154;DHT22;8182;55.648;13.208;2024-03-02T04:54:29;7.10;1.00
16154;DHT22;8182;55.648;13.208;2024-03-02T04:56:59;7.20;1.00
16154;DHT22;8182;55.648;13.208;2024-03-02T04:59:26;7.20;1.00
16154;DHT22;8182;55.648;13.208;2024-03-02T05:01:53;7.20;1.00
16154;DHT22;8182;55.648;13.208;2024-03-02T05:04:20;7.20;1.00
16154;DHT22;8182;55.648;13.208;2024-03-02T05:06:47;7.10;1.00
16154;DHT22;8182;55.648;13.208;2024-03-02T05:09:18;7.10;1.00
16154;DHT22;8182;55.648;13.208;2024-03-02T05:11:45;7.20;1.00
16154;DHT22;8182;55.648;13.208;2024-03-02T05:14:38;7.20;1.00
16154;DHT22;8182;55.648;13.208;2024-03-02T05:17:04;7.20;1.00
16154;DHT22;8182;55.648;13.208;2024-03-02T05:19:31;7.20;1.00
16154;DHT22;8182;55.648;13.208;2024-03-02T05:21:58;7.20;1.00
16154;DHT22;8182;55.648;13.208;2024-03-02T05:24:25;7.20;1.00
16154;DHT22;8182;55.648;13.208;2024-03-02T05:26:53;7.20;1.00
16154;DHT22;8182;55.648;13.208;2024-03-02T05:29:21;7.20;1.00
16154;DHT22;8182;55.648;13.208;2024-03-02T05:31:49;7.20;1.00
16154;DHT22;8182;55.648;13.208;2024-03-02T05:34:16;7.20;1.00
16154;DHT22;8182;55.648;13.208;2024-03-02T05:36:44;7.20;1.00
16154;DHT22;8182;55.648;13.208;2024-03-02T05:39:11;7.20;1.00
16154;DHT22;8182;55.648;13.208;2024-03-02T05:41:38;7.20;1.00
16154;DHT22;8182;55.648;13.208;2024-03-02T05:44:05;7.20;1.00
16154;DHT22;8182;55.648;13.208;2024-03-02T05:46:31;7.20;1.00
16154;DHT22;8182;55.648;13.208;2024-03-02T05:49:02;7.20;1.00
16154;DHT22;8182;55.648;13.208;2024-03-02T05:51:29;7.20;1.00
16154;DHT22;8182;55.648;13.208;2024-03-02T05:53:56;7.20;1.00
16154;DHT22;8182;55.648;13.208;2024-03-02T05:56:23;7.20;1.00
16154;DHT22;8182;55.648;13.208;2024-03-02T05:58:50;7.20;12.10
16154;DHT22;8182;55.648;13.208;2024-03-02T06:01:32;7.20;36.50
16154;DHT22;8182;55.648;13.208;2024-03-02T06:03:59;7.20;99.90
16154;DHT22;8182;55.648;13.208;2024-03-02T06:06:27;7.20;1.00
16154;DHT22;8182;55.648;13.208;2024-03-02T06:08:54;7.20;52.80
16154;DHT22;8182;55.648;13.208;2024-03-02T06:11:22;7.10;1.00
16154;DHT22;8182;55.648;13.208;2024-03-02T06:13:48;7.10;1.00
16154;DHT22;8182;55.648;13.208;2024-03-02T06:16:15;7.10;99.90
16154;DHT22;8182;55.648;13.208;2024-03-02T06:18:42;7.10;1.00
16154;DHT22;8182;55.648;13.208;2024-03-02T06:21:09;7.10;1.00
16154;DHT22;8182;55.648;13.208;2024-03-02T06:23:38;7.10;99.90
16154;DHT22;8182;55.648;13.208;2024-03-02T06:26:05;7.10;1.00
16154;DHT22;8182;55.648;13.208;2024-03-02T06:28:32;7.10;99.90
16154;DHT22;8182;55.648;13.208;2024-03-02T06:30:59;7.10;1.00
16154;DHT22;8182;55.648;13.208;2024-03-02T06:33:26;7.00;99.90
16154;DHT22;8182;55.648;13.208;2024-03-02T06:35:54;7.00;1.00
16154;DHT22;8182;55.648;13.208;2024-03-02T06:38:20;7.00;99.90
16154;DHT22;8182;55.648;13.208;2024-03-02T06:40:49;7.00;1.00
16154;DHT22;8182;55.648;13.208;2024-03-02T06:43:16;7.00;16.80
16154;DHT22;8182;55.648;13.208;2024-03-02T06:45:43;7.00;99.90
16154;DHT22;8182;55.648;13.208;2024-03-02T06:48:09;7.10;1.00
16154;DHT22;8182;55.648;13.208;2024-03-02T06:50:36;7.10;1.00
16154;DHT22;8182;55.648;13.208;2024-03-02T06:53:03;7.10;19.30
16154;DHT22;8182;55.648;13.208;2024-03-02T06:55:30;7.10;99.90
16154;DHT22;8182;55.648;13.208;2024-03-02T06:57:58;7.10;99.90
16154;DHT22;8182;55.648;13.208;2024-03-02T07:00:25;7.10;99.90
16154;DHT22;8182;55.648;13.208;2024-03-02T07:02:52;7.10;1.00
16154;DHT22;8182;55.648;13.208;2024-03-02T07:05:19;7.10;1.00
16154;DHT22;8182;55.648;13.208;2024-03-02T07:07:46;7.10;1.00
16154;DHT22;8182;55.648;13.208;2024-03-02T07:10:13;7.10;1.00
16154;DHT22;8182;55.648;13.208;2024-03-02T07:12:40;7.20;1.00
16154;DHT22;8182;55.648;13.208;2024-03-02T07:15:11;7.20;1.00
16154;DHT22;8182;55.648;13.208;2024-03-02T07:17:50;7.20;1.00
16154;DHT22;8182;55.648;13.208;2024-03-02T07:20:17;7.10;1.00
16154;DHT22;8182;55.648;13.208;2024-03-02T07:22:44;7.20;1.00
16154;DHT22;8182;55.648;13.208;2024-03-02T07:25:11;7.20;53.90
16154;DHT22;8182;55.648;13.208;2024-03-02T07:27:39;7.20;80.70
16154;DHT22;8182;55.648;13.208;2024-03-02T07:30:08;7.30;59.40
16154;DHT22;8182;55.648;13.208;2024-03-02T07:32:37;7.30;87.90
16154;DHT22;8182;55.648;13.208;2024-03-02T07:35:04;7.30;99.90
16154;DHT22;8182;55.648;13.208;2024-03-02T07:37:31;7.40;99.90
16154;DHT22;8182;55.648;13.208;2024-03-02T07:39:58;7.40;99.90
16154;DHT22;8182;55.648;13.208;2024-03-02T07:42:25;7.50;99.90
16154;DHT22;8182;55.648;13.208;2024-03-02T07:44:52;7.50;99.90
16154;DHT22;8182;55.648;13.208;2024-03-02T07:47:20;7.50;99.90
16154;DHT22;8182;55.648;13.208;2024-03-02T07:49:47;7.50;99.90
16154;DHT22;8182;55.648;13.208;2024-03-02T07:52:14;7.60;99.90
16154;DHT22;8182;55.648;13.208;2024-03-02T07:54:41;7.70;99.90
16154;DHT22;8182;55.648;13.208;2024-03-02T07:57:08;7.70;99.90
16154;DHT22;8182;55.648;13.208;2024-03-02T07:59:36;7.70;1.00
16154;DHT22;8182;55.648;13.208;2024-03-02T08:02:03;7.70;1.00
16154;DHT22;8182;55.648;13.208;2024-03-02T08:04:31;7.70;1.00
16154;DHT22;8182;55.648;13.208;2024-03-02T08:06:58;7.70;1.00
16154;DHT22;8182;55.648;13.208;2024-03-02T08:09:25;7.80;99.90
16154;DHT22;8182;55.648;13.208;2024-03-02T08:11:52;7.70;99.90
16154;DHT22;8182;55.648;13.208;2024-03-02T08:14:19;7.80;99.90
16154;DHT22;8182;55.648;13.208;2024-03-02T08:16:46;7.70;99.90
16154;DHT22;8182;55.648;13.208;2024-03-02T08:19:13;7.70;99.90
16154;DHT22;8182;55.648;13.208;2024-03-02T08:21:42;7.70;99.90
16154;DHT22;8182;55.648;13.208;2024-03-02T08:24:10;7.70;99.90
16154;DHT22;8182;55.648;13.208;2024-03-02T08:26:37;7.70;1.00
16154;DHT22;8182;55.648;13.208;2024-03-02T08:29:03;7.80;1.00
16154;DHT22;8182;55.648;13.208;2024-03-02T08:31:30;7.80;1.00
16154;DHT22;8182;55.648;13.208;2024-03-02T08:33:57;7.80;1.00
16154;DHT22;8182;55.648;13.208;2024-03-02T08:36:24;7.80;99.90
16154;DHT22;8182;55.648;13.208;2024-03-02T08:38:52;7.90;99.90
16154;DHT22;8182;55.648;13.208;2024-03-02T08:41:19;7.80;99.90
16154;DHT22;8182;55.648;13.208;2024-03-02T08:43:46;7.80;99.90
16154;DHT22;8182;55.648;13.208;2024-03-02T08:46:13;7.80;99.90
16154;DHT22;8182;55.648;13.208;2024-03-02T08:48:40;7.80;99.90
16154;DHT22;8182;55.648;13.208;2024-03-02T08:51:07;7.90;99.90
16154;DHT22;8182;55.648;13.208;2024-03-02T08:53:35;7.90;1.00
16154;DHT22;8182;55.648;13.208;2024-03-02T08:56:05;7.90;1.00
16154;DHT22;8182;55.648;13.208;2024-03-02T08:58:32;7.90;1.00
16154;DHT22;8182;55.648;13.208;2024-03-02T09:00:59;7.90;1.00
16154;DHT22;8182;55.648;13.208;2024-03-02T09:03:26;8.00;1.00
16154;DHT22;8182;55.648;13.208;2024-03-02T09:05:53;8.00;1.00
16154;DHT22;8182;55.648;13.208;2024-03-02T09:08:20;8.00;1.00
16154;DHT22;8182;55.648;13.208;2024-03-02T09:10:47;8.00;1.00
16154;DHT22;8182;55.648;13.208;2024-03-02T09:13:15;8.00;26.80
16154;DHT22;8182;55.648;13.208;2024-03-02T09:15:42;8.10;97.50
16154;DHT22;8182;55.648;13.208;2024-03-02T09:18:10;8.10;99.90
16154;DHT22;8182;55.648;13.208;2024-03-02T09:20:36;8.10;99.90
16154;DHT22;8182;55.648;13.208;2024-03-02T09:23:03;8.10;99.90
16154;DHT22;8182;55.648;13.208;2024-03-02T09:25:30;8.10;99.90
16154;DHT22;8182;55.648;13.208;2024-03-02T09:27:57;8.10;99.90
16154;DHT22;8182;55.648;13.208;2024-03-02T09:30:26;8.10;99.90
16154;DHT22;8182;55.648;13.208;2024-03-02T09:32:53;8.00;99.90
16154;DHT22;8182;55.648;13.208;2024-03-02T09:35:19;8.10;99.90
16154;DHT22;8182;55.648;13.208;2024-03-02T09:37:46;8.10;99.90
16154;DHT22;8182;55.648;13.208;2024-03-02T09:40:13;8.10;99.90
16154;DHT22;8182;55.648;13.208;2024-03-02T09:42:42;8.10;99.90
16154;DHT22;8182;55.648;13.208;2024-03-02T09:45:09;8.20;99.90
16154;DHT22;8182;55.648;13.208;2024-03-02T09:47:38;8.20;99.90
16154;DHT22;8182;55.648;13.208;2024-03-02T09:50:06;8.20;99.90
16154;DHT22;8182;55.648;13.208;2024-03-02T09:52:33;8.20;99.90
16154;DHT22;8182;55.648;13.208;2024-03-02T09:55:00;8.20;99.90
16154;DHT22;8182;55.648;13.208;2024-03-02T09:57:27;8.20;99.90
16154;DHT22;8182;55.648;13.208;2024-03-02T09:59:54;8.20;1.00
16154;DHT22;8182;55.648;13.208;2024-03-02T10:02:21;8.20;99.90
16154;DHT22;8182;55.648;13.208;2024-03-02T10:04:50;8.20;99.90
16154;DHT22;8182;55.648;13.208;2024-03-02T10:07:18;8.20;1.00
16154;DHT22;8182;55.648;13.208;2024-03-02T10:09:46;8.20;1.00
16154;DHT22;8182;55.648;13.208;2024-03-02T10:12:14;8.20;1.00
16154;DHT22;8182;55.648;13.208;2024-03-02T10:14:42;8.30;1.00
16154;DHT22;8182;55.648;13.208;2024-03-02T10:17:10;8.30;1.00
16154;DHT22;8182;55.648;13.208;2024-03-02T10:19:38;8.20;99.90
16154;DHT22;8182;55.648;13.208;2024-03-02T10:22:07;8.20;99.90
16154;DHT22;8182;55.648;13.208;2024-03-02T10:24:38;8.20;99.90
16154;DHT22;8182;55.648;13.208;2024-03-02T10:27:09;8.20;1.00
16154;DHT22;8182;55.648;13.208;2024-03-02T10:29:39;8.20;1.00
16154;DHT22;8182;55.648;13.208;2024-03-02T10:32:09;8.20;1.00
16154;DHT22;8182;55.648;13.208;2024-03-02T10:34:37;8.20;1.00
16154;DHT22;8182;55.648;13.208;2024-03-02T10:37:04;8.20;1.00
16154;DHT22;8182;55.648;13.208;2024-03-02T10:39:34;8.30;99.90
16154;DHT22;8182;55.648;13.208;2024-03-02T10:42:03;8.30;1.00
16154;DHT22;8182;55.648;13.208;2024-03-02T10:44:31;8.30;99.90
16154;DHT22;8182;55.648;13.208;2024-03-02T10:47:00;8.30;99.90
16154;DHT22;8182;55.648;13.208;2024-03-02T10:49:29;8.30;1.00
16154;DHT22;8182;55.648;13.208;2024-03-02T10:51:56;8.30;99.90
16154;DHT22;8182;55.648;13.208;2024-03-02T10:54:23;8.30;1.00
16154;DHT22;8182;55.648;13.208;2024-03-02T10:56:56;8.30;99.90
16154;DHT22;8182;55.648;13.208;2024-03-02T10:59:27;8.30;1.00
16154;DHT22;8182;55.648;13.208;2024-03-02T11:01:56;8.30;25.70
16154;DHT22;8182;55.648;13.208;2024-03-02T11:04:25;8.30;99.90
16154;DHT22;8182;55.648;13.208;2024-03-02T11:06:53;8.30;1.00
16154;DHT22;8182;55.648;13.208;2024-03-02T11:09:22;8.30;38.40
16154;DHT22;8182;55.648;13.208;2024-03-02T11:11:56;8.40;99.90
16154;DHT22;8182;55.648;13.208;2024-03-02T11:14:25;8.40;99.90
16154;DHT22;8182;55.648;13.208;2024-03-02T11:16:52;8.40;99.90
16154;DHT22;8182;55.648;13.208;2024-03-02T11:19:20;8.40;1.00
16154;DHT22;8182;55.648;13.208;2024-03-02T11:21:47;8.40;58.80
16154;DHT22;8182;55.648;13.208;2024-03-02T11:24:33;8.40;99.90
16154;DHT22;8182;55.648;13.208;2024-03-02T11:27:02;8.40;99.90
16154;DHT22;8182;55.648;13.208;2024-03-02T11:29:45;8.40;1.00
16154;DHT22;8182;55.648;13.208;2024-03-02T11:32:17;8.40;1.00
16154;DHT22;8182;55.648;13.208;2024-03-02T11:34:46;8.50;1.00
16154;DHT22;8182;55.648;13.208;2024-03-02T11:37:12;8.40;1.00
16154;DHT22;8182;55.648;13.208;2024-03-02T11:39:41;8.40;1.00
16154;DHT22;8182;55.648;13.208;2024-03-02T11:42:19;8.50;1.00
16154;DHT22;8182;55.648;13.208;2024-03-02T11:44:47;8.50;63.40
16154;DHT22;8182;55.648;13.208;2024-03-02T11:47:15;8.50;1.00
16154;DHT22;8182;55.648;13.208;2024-03-02T11:49:44;8.50;1.00
16154;DHT22;8182;55.648;13.208;2024-03-02T11:52:12;8.50;1.00
16154;DHT22;8182;55.648;13.208;2024-03-02T11:54:43;8.50;1.00
16154;DHT22;8182;55.648;13.208;2024-03-02T11:57:16;8.50;1.00
16154;DHT22;8182;55.648;13.208;2024-03-02T11:59:43;8.50;1.00
16154;DHT22;8182;55.648;13.208;2024-03-02T12:02:15;8.50;99.90
16154;DHT22;8182;55.648;13.208;2024-03-02T12:04:43;8.50;99.90
16154;DHT22;8182;55.648;13.208;2024-03-02T12:07:11;8.60;99.90
16154;DHT22;8182;55.648;13.208;2024-03-02T12:09:38;8.50;99.90
16154;DHT22;8182;55.648;13.208;2024-03-02T12:12:06;8.60;99.90
16154;DHT22;8182;55.648;13.208;2024-03-02T12:14:35;8.50;68.70
16154;DHT22;8182;55.648;13.208;2024-03-02T12:17:03;8.60;99.90
16154;DHT22;8182;55.648;13.208;2024-03-02T12:19:31;8.60;99.90
16154;DHT22;8182;55.648;13.208;2024-03-02T12:21:58;8.60;99.90
16154;DHT22;8182;55.648;13.208;2024-03-02T12:24:27;8.50;99.90
16154;DHT22;8182;55.648;13.208;2024-03-02T12:26:55;8.50;1.00
16154;DHT22;8182;55.648;13.208;2024-03-02T12:29:22;8.60;1.00
16154;DHT22;8182;55.648;13.208;2024-03-02T12:31:52;8.60;1.00
16154;DHT22;8182;55.648;13.208;2024-03-02T12:34:19;8.60;1.00
16154;DHT22;8182;55.648;13.208;2024-03-02T12:36:46;8.60;99.90
16154;DHT22;8182;55.648;13.208;2024-03-02T12:39:15;8.60;1.00
16154;DHT22;8182;55.648;13.208;2024-03-02T12:41:42;8.60;1.00
16154;DHT22;8182;55.648;13.208;2024-03-02T12:44:09;8.60;99.90
16154;DHT22;8182;55.648;13.208;2024-03-02T12:46:36;8.70;99.90
16154;DHT22;8182;55.648;13.208;2024-03-02T12:49:10;8.70;1.00
16154;DHT22;8182;55.648;13.208;2024-03-02T12:51:38;8.60;99.90
16154;DHT22;8182;55.648;13.208;2024-03-02T12:54:06;8.50;99.90
16154;DHT22;8182;55.648;13.208;2024-03-02T12:56:33;8.50;1.00
16154;DHT22;8182;55.648;13.208;2024-03-02T12:59:00;8.50;1.00
16154;DHT22;8182;55.648;13.208;2024-03-02T13:01:28;8.60;1.00
16154;DHT22;8182;55.648;13.208;2024-03-02T13:03:58;8.60;1.00
16154;DHT22;8182;55.648;13.208;2024-03-02T13:06:27;8.60;1.00
16154;DHT22;8182;55.648;13.208;2024-03-02T13:08:54;8.60;1.00
16154;DHT22;8182;55.648;13.208;2024-03-02T13:11:22;8.60;99.90
16154;DHT22;8182;55.648;13.208;2024-03-02T13:13:50;8.60;1.00
16154;DHT22;8182;55.648;13.208;2024-03-02T13:16:18;8.60;1.00
16154;DHT22;8182;55.648;13.208;2024-03-02T13:18:45;8.50;99.90
16154;DHT22;8182;55.648;13.208;2024-03-02T13:21:13;8.50;1.00
16154;DHT22;8182;55.648;13.208;2024-03-02T13:23:41;8.40;99.90
16154;DHT22;8182;55.648;13.208;2024-03-02T13:26:08;8.40;1.00
16154;DHT22;8182;55.648;13.208;2024-03-02T13:28:38;8.40;1.00
16154;DHT22;8182;55.648;13.208;2024-03-02T13:31:05;8.40;99.90
16154;DHT22;8182;55.648;13.208;2024-03-02T13:33:32;8.30;99.90
16154;DHT22;8182;55.648;13.208;2024-03-02T13:35:59;8.20;1.00
16154;DHT22;8182;55.648;13.208;2024-03-02T13:38:27;8.20;99.90
16154;DHT22;8182;55.648;13.208;2024-03-02T13:40:55;8.10;99.90
16154;DHT22;8182;55.648;13.208;2024-03-02T13:43:22;8.10;99.90
16154;DHT22;8182;55.648;13.208;2024-03-02T13:45:49;8.10;1.00
16154;DHT22;8182;55.648;13.208;2024-03-02T13:48:17;8.10;1.00
16154;DHT22;8182;55.648;13.208;2024-03-02T13:50:44;8.00;99.90
16154;DHT22;8182;55.648;13.208;2024-03-02T13:53:12;8.00;99.90
16154;DHT22;8182;55.648;13.208;2024-03-02T13:55:39;7.90;99.90
16154;DHT22;8182;55.648;13.208;2024-03-02T13:58:09;8.00;1.00
16154;DHT22;8182;55.648;13.208;2024-03-02T14:00:36;8.00;99.90
16154;DHT22;8182;55.648;13.208;2024-03-02T14:03:04;7.90;99.90
16154;DHT22;8182;55.648;13.208;2024-03-02T14:05:32;7.90;1.00
16154;DHT22;8182;55.648;13.208;2024-03-02T14:07:59;7.90;1.00
16154;DHT22;8182;55.648;13.208;2024-03-02T14:10:26;7.90;1.00
16154;DHT22;8182;55.648;13.208;2024-03-02T14:12:53;7.90;1.00
16154;DHT22;8182;55.648;13.208;2024-03-02T14:15:22;7.90;99.90
16154;DHT22;8182;55.648;13.208;2024-03-02T14:17:49;7.90;99.90
16154;DHT22;8182;55.648;13.208;2024-03-02T14:20:17;8.00;1.00
16154;DHT22;8182;55.648;13.208;2024-03-02T14:22:47;8.00;1.00
16154;DHT22;8182;55.648;13.208;2024-03-02T14:25:14;7.90;1.00
16154;DHT22;8182;55.648;13.208;2024-03-02T14:27:42;7.90;99.90
16154;DHT22;8182;55.648;13.208;2024-03-02T14:30:10;7.80;99.90
16154;DHT22;8182;55.648;13.208;2024-03-02T14:32:38;7.90;99.90
16154;DHT22;8182;55.648;13.208;2024-03-02T14:35:06;7.90;1.00
16154;DHT22;8182;55.648;13.208;2024-03-02T14:37:35;7.90;99.90
16154;DHT22;8182;55.648;13.208;2024-03-02T14:40:02;7.90;99.90
16154;DHT22;8182;55.648;13.208;2024-03-02T14:42:32;7.90;99.90
16154;DHT22;8182;55.648;13.208;2024-03-02T14:44:58;8.00;99.90
16154;DHT22;8182;55.648;13.208;2024-03-02T14:47:25;8.00;99.90
16154;DHT22;8182;55.648;13.208;2024-03-02T14:49:54;8.00;99.90
16154;DHT22;8182;55.648;13.208;2024-03-02T14:52:21;8.00;99.90
16154;DHT22;8182;55.648;13.208;2024-03-02T14:54:48;8.00;99.90
16154;DHT22;8182;55.648;13.208;2024-03-02T14:57:14;8.00;99.90
16154;DHT22;8182;55.648;13.208;2024-03-02T14:59:41;8.00;99.90
16154;DHT22;8182;55.648;13.208;2024-03-02T15:02:09;8.00;99.90
16154;DHT22;8182;55.648;13.208;2024-03-02T15:04:35;8.00;99.90
16154;DHT22;8182;55.648;13.208;2024-03-02T15:07:04;8.00;99.90
16154;DHT22;8182;55.648;13.208;2024-03-02T15:09:31;8.00;99.90
16154;DHT22;8182;55.648;13.208;2024-03-02T15:12:00;7.90;99.90
16154;DHT22;8182;55.648;13.208;2024-03-02T15:14:27;7.90;99.90
16154;DHT22;8182;55.648;13.208;2024-03-02T15:16:54;7.80;99.90
16154;DHT22;8182;55.648;13.208;2024-03-02T15:19:21;7.70;99.90
16154;DHT22;8182;55.648;13.208;2024-03-02T15:21:48;7.70;99.90
16154;DHT22;8182;55.648;13.208;2024-03-02T15:24:16;7.80;1.00
16154;DHT22;8182;55.648;13.208;2024-03-02T15:26:43;7.80;1.00
16154;DHT22;8182;55.648;13.208;2024-03-02T15:29:10;7.70;56.10
16154;DHT22;8182;55.648;13.208;2024-03-02T15:31:37;7.70;99.90
16154;DHT22;8182;55.648;13.208;2024-03-02T15:34:04;7.70;99.90
16154;DHT22;8182;55.648;13.208;2024-03-02T15:36:33;7.70;99.90
16154;DHT22;8182;55.648;13.208;2024-03-02T15:39:00;7.80;99.90
16154;DHT22;8182;55.648;13.208;2024-03-02T15:41:29;7.80;1.00
16154;DHT22;8182;55.648;13.208;2024-03-02T15:43:56;7.80;12.80
16154;DHT22;8182;55.648;13.208;2024-03-02T15:46:23;7.80;1.00
16154;DHT22;8182;55.648;13.208;2024-03-02T15:48:50;7.80;99.90
16154;DHT22;8182;55.648;13.208;2024-03-02T15:51:17;7.80;1.00
16154;DHT22;8182;55.648;13.208;2024-03-02T15:53:44;7.80;99.90
16154;DHT22;8182;55.648;13.208;2024-03-02T15:56:11;7.80;99.90
16154;DHT22;8182;55.648;13.208;2024-03-02T15:58:39;7.90;1.00